SBCG/CGR METAR and TAF weather

Enter ICAO airport designator
Station Type Date Time Source
SBCG METAR 2020/11/25 22:00 UTC NOAA

SBCG 252200Z 13004KT 9999 FEW048 SCT070 26/21 Q1011


Station Type Date Time Source
SBCG Decoded METAR 2020/11/25 22:00 UTC NOAA

Campo Grande Aeroporto , Brazil (SBCG) 20-28S 054-40W 567M
Nov 25, 2020 - 05:00 PM EST / 2020.11.25 2200 UTC
Wind: from the SE (130 degrees) at 5 MPH (4 KT):0
Visibility: greater than 7 mile(s):0
Sky conditions: partly cloudy
Temperature: 78 F (26 C)
Dew Point: 69 F (21 C)
Relative Humidity: 73%
Pressure (altimeter): 29.85 in. Hg (1011 hPa)
ob: SBCG 252200Z 13004KT 9999 FEW048 SCT070 26/21 Q1011
cycle: 22

Station Type Date Time Source
SBCG TAF 2020/11/25 18:27 UTC NOAA

TAF SBCG 251500Z 2518/2618 04006KT 9999 FEW045TN25/2608Z TX36/2616Z PROB30 2518/2520 35009KT SHRA SCT047 FEW050TCU
BECMG 2520/2522 09005KT CAVOK PROB30 2522/2524 FEW050TCU
BECMG 2602/2604 03015KT
BECMG 2608/2610 SCT045
BECMG 2611/2613 01013KT
RMK PGE

Example: see airport list